createdAt,value
2019-01-28T00:00:12.677Z,19.33
2019-01-28T00:02:46.523Z,13.63
2019-01-28T00:05:18.941Z,11.83
2019-01-28T00:08:10.363Z,17.40
2019-01-28T00:10:42.573Z,12.10
2019-01-28T00:13:15.702Z,13.27
2019-01-28T00:15:49.221Z,12.27
2019-01-28T00:18:20.062Z,16.57
2019-01-28T00:20:53.176Z,10.93
2019-01-28T00:23:23.791Z,12.93
2019-01-28T00:25:55.424Z,11.53
2019-01-28T00:28:26.648Z,10.77
2019-01-28T00:30:58.720Z,11.20
2019-01-28T00:33:34.798Z,9.93
2019-01-28T00:36:06.502Z,12.47
2019-01-28T00:38:39.160Z,9.70
2019-01-28T00:41:09.584Z,9.30
2019-01-28T00:43:40.975Z,11.50
2019-01-28T00:46:13.210Z,11.87
2019-01-28T00:48:45.478Z,8.70
2019-01-28T00:51:17.189Z,10.40
2019-01-28T00:53:51.660Z,10.03
2019-01-28T00:56:24.156Z,9.57
2019-01-28T00:58:56.899Z,12.10
2019-01-28T01:01:27.632Z,12.27
2019-01-28T01:03:59.208Z,9.63
2019-01-28T01:06:31.141Z,10.80
2019-01-28T01:09:04.334Z,8.80
2019-01-28T01:11:36.514Z,10.23
2019-01-28T01:14:11.416Z,7.43
2019-01-28T01:16:46.484Z,10.07
2019-01-28T01:19:20.130Z,10.60
2019-01-28T01:21:54.843Z,9.83
2019-01-28T01:24:32.459Z,8.63
2019-01-28T01:27:11.078Z,8.73
2019-01-28T01:29:43.171Z,11.10
2019-01-28T01:32:14.494Z,9.83
2019-01-28T01:34:53.830Z,7.40
2019-01-28T01:37:28.684Z,7.83
2019-01-28T01:40:00.089Z,6.33
2019-01-28T01:42:32.855Z,8.67
2019-01-28T01:45:04.031Z,9.17
2019-01-28T01:47:37.278Z,10.77
2019-01-28T01:50:10.283Z,5.10
2019-01-28T01:52:42.906Z,7.33
2019-01-28T01:55:17.658Z,8.30
2019-01-28T01:57:50.912Z,7.10
2019-01-28T02:00:22.562Z,7.53
2019-01-28T02:02:56.602Z,6.47
2019-01-28T02:05:29.488Z,7.00
2019-01-28T02:08:02.941Z,4.80
2019-01-28T02:10:33.503Z,8.17
2019-01-28T02:13:08.778Z,4.47
2019-01-28T02:15:43.897Z,6.80
2019-01-28T02:18:18.526Z,5.33
2019-01-28T02:20:51.268Z,5.97
2019-01-28T02:23:22.299Z,7.73
2019-01-28T02:25:54.622Z,8.40
2019-01-28T02:28:25.964Z,8.43
2019-01-28T02:30:57.973Z,6.70
2019-01-28T02:33:29.924Z,6.43
2019-01-28T02:36:03.940Z,9.53
2019-01-28T02:38:39.381Z,8.60
2019-01-28T02:41:11.313Z,4.90
2019-01-28T02:43:45.093Z,6.53
2019-01-28T02:46:17.897Z,7.63
2019-01-28T02:48:49.880Z,6.63
2019-01-28T02:51:27.901Z,7.37
2019-01-28T02:54:02.373Z,7.27
2019-01-28T02:56:33.571Z,6.90
2019-01-28T02:59:06.472Z,8.00
2019-01-28T03:01:40.637Z,6.13
2019-01-28T03:04:14.385Z,7.97
2019-01-28T03:06:45.738Z,9.50
2019-01-28T03:09:17.746Z,9.43
2019-01-28T03:11:49.699Z,10.73
2019-01-28T03:14:21.051Z,6.73
2019-01-28T03:16:54.637Z,8.73
2019-01-28T03:19:26.513Z,11.50
2019-01-28T03:21:57.601Z,6.70
2019-01-28T03:24:30.781Z,7.37
2019-01-28T03:27:01.445Z,9.47
2019-01-28T03:29:33.819Z,10.30
2019-01-28T03:32:05.052Z,9.87
2019-01-28T03:34:39.386Z,14.23
2019-01-28T03:37:12.990Z,6.93
2019-01-28T03:39:43.794Z,9.43
2019-01-28T03:42:16.724Z,6.33
2019-01-28T03:44:51.513Z,8.83
2019-01-28T03:47:25.988Z,6.00
2019-01-28T03:49:59.994Z,7.13
2019-01-28T03:52:35.393Z,8.93
2019-01-28T03:55:19.582Z,7.93
2019-01-28T03:57:50.931Z,9.80
2019-01-28T04:00:26.027Z,9.40
2019-01-28T04:02:57.501Z,7.33
2019-01-28T04:05:28.599Z,7.43
2019-01-28T04:08:00.245Z,7.60
2019-01-28T04:10:33.206Z,9.10
2019-01-28T04:13:07.258Z,4.57
2019-01-28T04:15:38.977Z,7.73
2019-01-28T04:18:09.575Z,5.90
2019-01-28T04:20:41.285Z,5.97
2019-01-28T04:23:13.026Z,4.63
2019-01-28T04:25:44.955Z,7.43
2019-01-28T04:28:16.752Z,3.93
2019-01-28T04:30:49.365Z,3.80
2019-01-28T04:33:20.548Z,4.60
2019-01-28T04:35:51.959Z,7.77
2019-01-28T04:38:26.058Z,4.57
2019-01-28T04:40:57.254Z,4.57
2019-01-28T04:43:28.859Z,4.77
2019-01-28T04:46:04.537Z,7.13
2019-01-28T04:48:36.424Z,4.43
2019-01-28T04:51:10.062Z,5.33
2019-01-28T04:53:44.065Z,4.87
2019-01-28T04:56:19.032Z,2.70
2019-01-28T04:58:54.287Z,3.50
2019-01-28T05:01:28.187Z,4.43
2019-01-28T05:04:00.435Z,4.80
2019-01-28T05:06:34.049Z,3.27
2019-01-28T05:09:09.857Z,3.30
2019-01-28T05:11:44.233Z,6.93
2019-01-28T05:14:23.636Z,4.10
2019-01-28T05:16:57.986Z,3.77
2019-01-28T05:19:31.006Z,2.50
2019-01-28T05:22:04.192Z,4.80
2019-01-28T05:24:37.022Z,3.90
2019-01-28T05:27:08.334Z,3.73
2019-01-28T05:29:39.358Z,2.90
2019-01-28T05:32:11.399Z,2.80
2019-01-28T05:34:45.820Z,4.00
2019-01-28T05:37:23.904Z,3.57
2019-01-28T05:40:03.271Z,2.60
2019-01-28T05:42:37.820Z,4.23
2019-01-28T05:45:11.763Z,4.07
2019-01-28T05:47:43.068Z,3.40
2019-01-28T05:50:14.461Z,3.33
2019-01-28T05:52:48.689Z,2.60
2019-01-28T05:55:19.554Z,2.13
2019-01-28T05:57:51.296Z,3.07
2019-01-28T06:00:29.137Z,3.50
2019-01-28T06:03:00.740Z,3.87
2019-01-28T06:05:33.732Z,3.43
2019-01-28T06:08:06.306Z,3.27
2019-01-28T06:10:39.782Z,3.23
2019-01-28T06:13:17.676Z,2.87
2019-01-28T06:15:53.150Z,3.90
2019-01-28T06:18:27.902Z,3.20
2019-01-28T06:20:58.801Z,5.17
2019-01-28T06:23:30.498Z,3.93
2019-01-28T06:26:02.444Z,2.87
2019-01-28T06:28:36.974Z,3.73
2019-01-28T06:31:08.881Z,2.73
2019-01-28T06:33:40.896Z,3.17
2019-01-28T06:36:14.705Z,3.00
2019-01-28T06:38:57.183Z,3.80
2019-01-28T06:41:29.484Z,4.33
2019-01-28T06:44:00.840Z,3.27
2019-01-28T06:46:34.000Z,4.30
2019-01-28T06:49:09.393Z,3.27
2019-01-28T06:51:43.001Z,2.47
2019-01-28T06:54:15.762Z,4.07
2019-01-28T06:56:50.233Z,3.90
2019-01-28T06:59:22.902Z,3.13
2019-01-28T07:01:55.389Z,2.90
2019-01-28T07:04:29.104Z,3.10
2019-01-28T07:07:00.244Z,2.73
2019-01-28T07:09:32.603Z,5.30
2019-01-28T07:12:06.121Z,6.07
2019-01-28T07:14:37.969Z,3.00
2019-01-28T07:17:09.198Z,3.93
2019-01-28T07:19:41.387Z,4.67
2019-01-28T07:22:14.310Z,5.83
2019-01-28T07:24:46.880Z,3.33
2019-01-28T07:27:17.656Z,3.63
2019-01-28T07:29:49.074Z,4.90
2019-01-28T07:32:23.569Z,3.97
2019-01-28T07:34:57.968Z,3.37
2019-01-28T07:37:30.086Z,4.70
2019-01-28T07:40:02.156Z,7.10
2019-01-28T07:42:36.087Z,3.23
2019-01-28T07:45:13.992Z,3.60
2019-01-28T07:47:47.328Z,3.30
2019-01-28T07:50:29.868Z,4.47
2019-01-28T07:53:04.769Z,4.33
2019-01-28T07:55:35.860Z,4.87
2019-01-28T07:58:07.786Z,4.40
2019-01-28T08:00:42.310Z,4.83
2019-01-28T08:03:16.505Z,6.33
2019-01-28T08:05:53.671Z,6.33
2019-01-28T08:08:32.358Z,7.37
2019-01-28T08:11:06.239Z,4.23
2019-01-28T08:13:37.894Z,5.50
2019-01-28T08:16:11.381Z,5.57
2019-01-28T08:18:45.781Z,5.07
2019-01-28T08:21:20.468Z,7.03
2019-01-28T08:23:51.695Z,5.50
2019-01-28T08:26:27.119Z,7.13
2019-01-28T08:29:03.247Z,4.00
2019-01-28T08:31:37.196Z,5.27
2019-01-28T08:34:21.139Z,6.77
2019-01-28T08:36:54.777Z,4.93
2019-01-28T08:39:27.098Z,6.63
2019-01-28T08:42:00.538Z,6.40
2019-01-28T08:44:35.691Z,7.53
2019-01-28T08:47:12.455Z,7.20
2019-01-28T08:49:45.367Z,11.07
2019-01-28T08:52:19.024Z,9.50
2019-01-28T08:54:53.609Z,7.03
2019-01-28T08:57:29.507Z,7.73
2019-01-28T09:00:03.641Z,6.90
2019-01-28T09:02:37.527Z,7.17
2019-01-28T09:05:10.119Z,8.53
2019-01-28T09:07:42.178Z,8.97
2019-01-28T09:10:15.675Z,7.93
2019-01-28T09:12:51.631Z,5.90
2019-01-28T09:15:23.579Z,7.37
2019-01-28T09:18:00.254Z,7.57
2019-01-28T09:20:33.476Z,9.70
2019-01-28T09:23:04.433Z,10.27
2019-01-28T09:25:37.087Z,7.40
2019-01-28T09:28:18.065Z,7.40
2019-01-28T09:30:49.640Z,7.37
2019-01-28T09:33:21.668Z,7.73
2019-01-28T09:35:52.380Z,6.90
2019-01-28T09:38:25.474Z,4.57
2019-01-28T09:41:00.888Z,4.93
2019-01-28T09:43:33.451Z,4.47
2019-01-28T09:46:09.740Z,6.70
2019-01-28T09:48:43.667Z,6.57
2019-01-28T09:51:20.670Z,5.80
2019-01-28T09:53:53.787Z,5.13
2019-01-28T09:56:24.733Z,5.87
2019-01-28T09:58:59.180Z,7.07
2019-01-28T10:01:36.011Z,5.80
2019-01-28T10:04:08.717Z,8.37
2019-01-28T10:06:43.231Z,5.17
2019-01-28T10:09:13.970Z,6.83
2019-01-28T10:11:46.242Z,5.63
2019-01-28T10:14:19.227Z,6.63
2019-01-28T10:16:50.411Z,5.13
2019-01-28T10:19:24.859Z,4.93
2019-01-28T10:22:08.162Z,4.70
2019-01-28T10:24:40.067Z,4.17
2019-01-28T10:27:14.289Z,5.87
2019-01-28T10:29:47.178Z,5.50
2019-01-28T10:32:24.399Z,3.67
2019-01-28T10:34:56.865Z,4.47
2019-01-28T10:37:30.681Z,4.17
2019-01-28T10:40:03.944Z,3.73
2019-01-28T10:42:37.248Z,3.53
2019-01-28T10:45:14.871Z,4.07
2019-01-28T10:47:49.563Z,4.83
2019-01-28T10:50:22.487Z,5.20
2019-01-28T10:53:01.191Z,3.57
2019-01-28T10:55:39.745Z,6.40
2019-01-28T10:58:15.341Z,6.20
2019-01-28T11:01:10.896Z,5.30
2019-01-28T11:03:41.901Z,4.53
2019-01-28T11:06:16.155Z,5.80
2019-01-28T11:08:48.035Z,4.00
2019-01-28T11:11:22.657Z,6.30
2019-01-28T11:13:54.106Z,5.63
2019-01-28T11:16:28.645Z,4.57
2019-01-28T11:19:02.921Z,6.00
2019-01-28T11:21:35.849Z,5.27
2019-01-28T11:24:06.751Z,3.90
2019-01-28T11:26:40.985Z,4.73
2019-01-28T11:29:13.208Z,4.37
2019-01-28T11:31:48.827Z,4.13
2019-01-28T11:34:20.761Z,4.77
2019-01-28T11:36:56.910Z,5.40
2019-01-28T11:39:32.267Z,8.73
2019-01-28T11:42:10.022Z,5.93
2019-01-28T11:44:44.696Z,5.37
2019-01-28T11:47:17.690Z,4.27
2019-01-28T11:49:55.483Z,7.40
2019-01-28T11:52:29.428Z,3.80
2019-01-28T11:55:00.428Z,4.80
2019-01-28T11:57:33.236Z,6.07
2019-01-28T12:00:06.483Z,6.43
2019-01-28T12:02:38.458Z,6.20
2019-01-28T12:05:12.333Z,7.77
2019-01-28T12:07:46.942Z,7.73
2019-01-28T12:10:20.487Z,6.77
2019-01-28T12:12:56.557Z,6.50
2019-01-28T12:15:28.090Z,9.20
2019-01-28T12:17:59.954Z,5.83
2019-01-28T12:20:32.916Z,8.50
2019-01-28T12:23:06.372Z,9.17
2019-01-28T12:25:37.662Z,8.37
2019-01-28T12:28:09.703Z,10.50
2019-01-28T12:30:44.183Z,9.73
2019-01-28T12:33:18.831Z,12.83
2019-01-28T12:35:53.722Z,9.73
2019-01-28T12:38:26.993Z,7.83
2019-01-28T12:40:58.142Z,7.67
2019-01-28T12:43:30.177Z,9.60
2019-01-28T12:46:03.375Z,9.83
2019-01-28T12:48:36.090Z,7.43
2019-01-28T12:51:11.426Z,10.47
2019-01-28T12:53:46.260Z,7.33
2019-01-28T12:56:21.283Z,8.43
2019-01-28T12:58:54.588Z,7.03
2019-01-28T13:01:27.272Z,9.40
2019-01-28T13:04:01.215Z,9.97
2019-01-28T13:06:34.325Z,9.07
2019-01-28T13:09:09.095Z,6.63
2019-01-28T13:11:47.042Z,4.50
2019-01-28T13:14:19.593Z,6.87
2019-01-28T13:16:55.737Z,8.40
2019-01-28T13:19:33.840Z,6.87
2019-01-28T13:22:04.957Z,8.77
2019-01-28T13:24:36.549Z,5.53
2019-01-28T13:27:08.204Z,6.17
2019-01-28T13:29:41.996Z,4.23
2019-01-28T13:32:14.247Z,10.20
2019-01-28T13:34:50.404Z,4.63
2019-01-28T13:37:22.409Z,5.93
2019-01-28T13:39:54.515Z,9.27
2019-01-28T13:42:30.026Z,7.33
2019-01-28T13:45:06.696Z,5.20
2019-01-28T13:47:38.158Z,6.63
2019-01-28T13:50:15.458Z,7.97
2019-01-28T13:52:49.858Z,9.03
2019-01-28T13:55:24.984Z,7.60
2019-01-28T13:58:07.485Z,8.57
2019-01-28T14:00:41.057Z,7.23
2019-01-28T14:03:13.604Z,9.80
2019-01-28T14:05:47.266Z,6.40
2019-01-28T14:08:19.583Z,9.10
2019-01-28T14:10:56.328Z,9.83
2019-01-28T14:13:28.076Z,9.23
2019-01-28T14:16:03.607Z,11.47
2019-01-28T14:18:35.520Z,8.73
2019-01-28T14:21:11.255Z,8.83
2019-01-28T14:23:46.727Z,11.13
2019-01-28T14:26:30.745Z,10.90
2019-01-28T14:29:12.340Z,15.57
2019-01-28T14:31:45.384Z,16.13
2019-01-28T14:34:18.270Z,11.47
2019-01-28T14:36:52.739Z,16.30
2019-01-28T14:39:26.936Z,19.17
2019-01-28T14:41:59.936Z,16.07
2019-01-28T14:44:31.445Z,12.83
2019-01-28T14:47:03.486Z,17.07
2019-01-28T14:49:37.115Z,9.67
2019-01-28T14:52:10.623Z,15.70
2019-01-28T14:54:47.120Z,13.50
2019-01-28T14:57:20.038Z,17.10
2019-01-28T15:00:00.880Z,10.60
2019-01-28T15:02:35.868Z,9.80
2019-01-28T15:05:14.571Z,16.47
2019-01-28T15:07:48.564Z,16.63
2019-01-28T15:10:23.348Z,16.00
2019-01-28T15:12:58.224Z,15.10
2019-01-28T15:15:38.115Z,13.03
2019-01-28T15:18:12.092Z,13.00
2019-01-28T15:21:06.747Z,12.60
2019-01-28T15:23:42.523Z,13.73
2019-01-28T15:26:13.704Z,16.60
2019-01-28T15:28:51.170Z,15.53
2019-01-28T15:31:22.686Z,13.83
2019-01-28T15:34:00.457Z,13.10
2019-01-28T15:36:32.787Z,10.70
2019-01-28T15:39:07.579Z,15.23
2019-01-28T15:41:41.233Z,18.30
2019-01-28T15:44:17.987Z,14.53
2019-01-28T15:47:06.252Z,15.67
2019-01-28T15:49:43.052Z,16.30
2019-01-28T15:52:18.268Z,14.40
2019-01-28T15:54:54.839Z,12.93
2019-01-28T15:57:27.131Z,16.37
2019-01-28T15:59:59.972Z,19.10
2019-01-28T16:02:35.295Z,18.87
2019-01-28T16:05:23.811Z,14.00
2019-01-28T16:07:59.144Z,19.50
2019-01-28T16:10:33.161Z,13.23
2019-01-28T16:13:14.839Z,18.13
2019-01-28T16:15:48.445Z,19.80
2019-01-28T16:18:20.941Z,12.83
2019-01-28T16:20:53.710Z,11.90
2019-01-28T16:23:25.086Z,12.03
2019-01-28T16:25:56.707Z,14.67
2019-01-28T16:28:29.562Z,16.70
2019-01-28T16:31:02.896Z,9.27
2019-01-28T16:33:48.540Z,8.30
2019-01-28T16:36:19.731Z,14.53
2019-01-28T16:38:50.687Z,10.30
2019-01-28T16:41:25.831Z,14.80
2019-01-28T16:43:59.035Z,15.57
2019-01-28T16:46:31.201Z,22.80
2019-01-28T16:49:02.657Z,14.50
2019-01-28T16:51:33.866Z,12.13
2019-01-28T16:54:05.747Z,15.37
2019-01-28T16:56:37.760Z,17.10
2019-01-28T16:59:08.782Z,16.20
2019-01-28T17:01:39.798Z,14.73
2019-01-28T17:04:12.217Z,14.40
2019-01-28T17:06:51.015Z,14.57
2019-01-28T17:09:23.156Z,13.30
2019-01-28T17:11:58.555Z,19.83
2019-01-28T17:14:32.828Z,13.13
2019-01-28T17:17:06.108Z,12.33
2019-01-28T17:19:39.611Z,14.90
2019-01-28T17:22:13.415Z,18.57
2019-01-28T17:24:45.295Z,12.93
2019-01-28T17:27:18.127Z,14.33
2019-01-28T17:29:50.165Z,17.20
2019-01-28T17:32:23.511Z,16.43
2019-01-28T17:34:56.346Z,13.17
2019-01-28T17:37:28.423Z,16.73
2019-01-28T17:40:00.867Z,14.27
2019-01-28T17:42:32.544Z,15.53
2019-01-28T17:45:04.828Z,16.90
2019-01-28T17:47:38.501Z,11.53
2019-01-28T17:50:12.421Z,15.47
2019-01-28T17:53:00.556Z,16.30
2019-01-28T17:55:37.894Z,14.83
2019-01-28T17:58:10.759Z,15.83
2019-01-28T18:01:00.405Z,13.20
2019-01-28T18:03:36.072Z,13.97
2019-01-28T18:06:09.143Z,14.97
2019-01-28T18:08:40.141Z,11.50
2019-01-28T18:11:10.684Z,19.80
2019-01-28T18:13:46.115Z,13.90
2019-01-28T18:16:18.225Z,14.13
2019-01-28T18:18:50.919Z,12.90
2019-01-28T18:21:23.397Z,11.17
2019-01-28T18:23:55.230Z,9.87
2019-01-28T18:26:26.640Z,12.67
2019-01-28T18:29:03.850Z,12.00
2019-01-28T18:31:39.764Z,7.80
2019-01-28T18:34:10.357Z,9.60
2019-01-28T18:36:43.327Z,10.47
2019-01-28T18:39:14.672Z,13.57
2019-01-28T18:41:47.438Z,9.20
2019-01-28T18:44:20.283Z,13.47
2019-01-28T18:46:54.105Z,10.70
2019-01-28T18:49:25.278Z,12.67
2019-01-28T18:52:10.816Z,10.63
2019-01-28T18:54:43.134Z,10.37
2019-01-28T18:57:15.382Z,8.17
2019-01-28T18:59:53.230Z,11.07
2019-01-28T19:02:26.809Z,9.03
2019-01-28T19:04:59.109Z,11.57
2019-01-28T19:07:53.530Z,10.93
2019-01-28T19:10:49.281Z,9.47
2019-01-28T19:13:39.968Z,10.53
2019-01-28T19:16:39.081Z,9.73
2019-01-28T19:19:27.741Z,12.73
2019-01-28T19:22:03.240Z,6.57
2019-01-28T19:24:34.380Z,12.40
2019-01-28T19:27:09.117Z,9.90
2019-01-28T19:29:40.366Z,6.80
2019-01-28T19:32:13.590Z,11.20
2019-01-28T19:34:55.435Z,7.80
2019-01-28T19:37:29.072Z,5.13
2019-01-28T19:40:09.468Z,8.20
2019-01-28T19:42:42.226Z,7.83
2019-01-28T19:45:24.219Z,7.03
2019-01-28T19:48:02.079Z,8.80
2019-01-28T19:50:34.272Z,11.87
2019-01-28T19:53:07.114Z,12.60
2019-01-28T19:55:39.322Z,11.50
2019-01-28T19:58:11.274Z,9.90
2019-01-28T20:00:45.230Z,11.10
2019-01-28T20:03:18.198Z,13.57
2019-01-28T20:05:50.686Z,10.13
2019-01-28T20:08:24.646Z,7.97
2019-01-28T20:10:56.788Z,15.23
2019-01-28T20:13:29.327Z,13.67
2019-01-28T20:16:02.439Z,10.33
2019-01-28T20:18:37.266Z,16.53
2019-01-28T20:21:09.449Z,15.57
2019-01-28T20:23:41.702Z,12.97
2019-01-28T20:26:15.069Z,12.30
2019-01-28T20:28:46.358Z,11.50
2019-01-28T20:31:17.721Z,12.23
2019-01-28T20:33:49.833Z,8.77
2019-01-28T20:36:24.124Z,12.53
2019-01-28T20:39:05.383Z,13.23
2019-01-28T20:41:36.865Z,10.50
2019-01-28T20:44:12.080Z,14.60
2019-01-28T20:46:46.084Z,15.27
2019-01-28T20:49:18.633Z,13.50
2019-01-28T20:51:55.272Z,14.83
2019-01-28T20:54:26.561Z,14.83
2019-01-28T20:56:57.832Z,14.50
2019-01-28T20:59:38.110Z,18.93
2019-01-28T21:02:10.574Z,28.50
2019-01-28T21:04:44.510Z,19.60
2019-01-28T21:07:18.870Z,17.90
2019-01-28T21:09:50.140Z,20.57
2019-01-28T21:12:23.553Z,16.37
2019-01-28T21:14:56.467Z,19.20
2019-01-28T21:17:31.670Z,14.50
2019-01-28T21:20:04.146Z,18.97
2019-01-28T21:22:36.336Z,15.90
2019-01-28T21:25:09.018Z,16.97
2019-01-28T21:27:44.105Z,15.93
2019-01-28T21:30:24.991Z,19.17
2019-01-28T21:32:55.787Z,17.00
2019-01-28T21:35:54.534Z,13.63
2019-01-28T21:38:33.656Z,19.10
2019-01-28T21:41:06.002Z,17.00
2019-01-28T21:43:39.492Z,15.07
2019-01-28T21:46:13.933Z,14.80
2019-01-28T21:48:45.486Z,18.80
2019-01-28T21:51:18.890Z,15.73
2019-01-28T21:53:51.581Z,16.67
2019-01-28T21:56:24.474Z,12.90
2019-01-28T21:58:57.122Z,16.77
2019-01-28T22:01:29.955Z,15.67
2019-01-28T22:04:11.055Z,18.57
2019-01-28T22:06:44.179Z,12.63
2019-01-28T22:09:18.050Z,16.43
2019-01-28T22:11:50.365Z,15.53
2019-01-28T22:14:22.351Z,15.17
2019-01-28T22:16:53.619Z,14.87
2019-01-28T22:19:26.526Z,14.33
2019-01-28T22:21:59.549Z,15.73
2019-01-28T22:24:31.524Z,12.97
2019-01-28T22:27:03.460Z,17.03
2019-01-28T22:29:34.676Z,18.67
2019-01-28T22:32:06.553Z,20.17
2019-01-28T22:34:47.516Z,19.37
2019-01-28T22:37:14.513Z,17.90
2019-01-28T22:39:45.865Z,17.03
2019-01-28T22:42:21.785Z,16.53
2019-01-28T22:44:54.803Z,18.50
2019-01-28T22:47:28.047Z,19.20
2019-01-28T22:50:01.446Z,20.37
2019-01-28T22:52:33.362Z,21.93
2019-01-28T22:55:05.293Z,18.60
2019-01-28T22:57:36.575Z,15.47
2019-01-28T23:00:22.337Z,18.10
2019-01-28T23:02:56.519Z,23.83
2019-01-28T23:05:29.270Z,19.93
2019-01-28T23:08:16.907Z,16.03
2019-01-28T23:10:52.928Z,19.27
2019-01-28T23:13:24.888Z,19.47
2019-01-28T23:15:57.347Z,21.77
2019-01-28T23:18:28.952Z,17.57
2019-01-28T23:21:00.533Z,21.60
2019-01-28T23:23:33.129Z,20.20
2019-01-28T23:26:07.048Z,19.37
2019-01-28T23:28:38.384Z,19.97
2019-01-28T23:31:10.051Z,21.40
2019-01-28T23:33:41.433Z,21.70
2019-01-28T23:36:11.991Z,21.73
2019-01-28T23:38:43.349Z,17.23
2019-01-28T23:41:14.740Z,26.27
2019-01-28T23:43:47.010Z,21.47
2019-01-28T23:46:18.456Z,22.17
2019-01-28T23:48:50.195Z,22.83
2019-01-28T23:51:22.157Z,28.57
2019-01-28T23:53:58.444Z,21.43
2019-01-28T23:56:30.102Z,24.07
2019-01-28T23:59:01.410Z,22.90
